sensor_id;sensor_type;location;lat;lon;timestamp;P1;durP1;ratioP1;P2;durP2;ratioP2
37063;SDS011;23211;53.912;9.138;2022-08-21T00:01:11;4.75;;;2.03;;
37063;SDS011;23211;53.912;9.138;2022-08-21T00:04:04;10.07;;;2.45;;
37063;SDS011;23211;53.912;9.138;2022-08-21T00:06:52;8.02;;;2.10;;
37063;SDS011;23211;53.912;9.138;2022-08-21T00:09:38;6.60;;;2.42;;
37063;SDS011;23211;53.912;9.138;2022-08-21T00:12:24;6.40;;;2.72;;
37063;SDS011;23211;53.912;9.138;2022-08-21T00:15:11;7.30;;;2.20;;
37063;SDS011;23211;53.912;9.138;2022-08-21T00:18:00;5.93;;;1.70;;
37063;SDS011;23211;53.912;9.138;2022-08-21T00:20:47;5.68;;;2.20;;
37063;SDS011;23211;53.912;9.138;2022-08-21T00:23:33;5.80;;;2.25;;
37063;SDS011;23211;53.912;9.138;2022-08-21T00:26:20;4.82;;;1.80;;
37063;SDS011;23211;53.912;9.138;2022-08-21T00:29:06;6.65;;;1.92;;
37063;SDS011;23211;53.912;9.138;2022-08-21T00:31:52;8.23;;;2.40;;
37063;SDS011;23211;53.912;9.138;2022-08-21T00:34:38;5.13;;;1.75;;
37063;SDS011;23211;53.912;9.138;2022-08-21T00:37:24;8.13;;;2.20;;
37063;SDS011;23211;53.912;9.138;2022-08-21T00:40:13;3.72;;;1.73;;
37063;SDS011;23211;53.912;9.138;2022-08-21T00:43:03;9.25;;;2.17;;
37063;SDS011;23211;53.912;9.138;2022-08-21T00:45:51;6.07;;;1.65;;
37063;SDS011;23211;53.912;9.138;2022-08-21T00:48:38;5.72;;;1.70;;
37063;SDS011;23211;53.912;9.138;2022-08-21T00:52:10;6.53;;;2.10;;
37063;SDS011;23211;53.912;9.138;2022-08-21T00:54:35;4.53;;;2.10;;
37063;SDS011;23211;53.912;9.138;2022-08-21T00:57:24;4.65;;;1.55;;
37063;SDS011;23211;53.912;9.138;2022-08-21T01:00:16;5.40;;;1.73;;
37063;SDS011;23211;53.912;9.138;2022-08-21T01:03:07;4.10;;;1.70;;
37063;SDS011;23211;53.912;9.138;2022-08-21T01:08:42;5.95;;;1.90;;
37063;SDS011;23211;53.912;9.138;2022-08-21T01:11:28;7.20;;;1.65;;
37063;SDS011;23211;53.912;9.138;2022-08-21T01:14:13;5.32;;;1.95;;
37063;SDS011;23211;53.912;9.138;2022-08-21T01:17:00;4.18;;;1.75;;
37063;SDS011;23211;53.912;9.138;2022-08-21T01:19:48;6.10;;;1.83;;
37063;SDS011;23211;53.912;9.138;2022-08-21T01:22:34;4.82;;;1.60;;
37063;SDS011;23211;53.912;9.138;2022-08-21T01:25:20;11.98;;;1.83;;
37063;SDS011;23211;53.912;9.138;2022-08-21T01:28:09;7.60;;;2.17;;
37063;SDS011;23211;53.912;9.138;2022-08-21T01:30:58;4.22;;;1.95;;
37063;SDS011;23211;53.912;9.138;2022-08-21T01:33:46;5.45;;;1.95;;
37063;SDS011;23211;53.912;9.138;2022-08-21T01:36:32;5.75;;;2.47;;
37063;SDS011;23211;53.912;9.138;2022-08-21T01:39:19;4.25;;;2.30;;
37063;SDS011;23211;53.912;9.138;2022-08-21T01:42:05;4.03;;;2.00;;
37063;SDS011;23211;53.912;9.138;2022-08-21T01:44:51;6.22;;;2.42;;
37063;SDS011;23211;53.912;9.138;2022-08-21T01:47:37;4.22;;;2.03;;
37063;SDS011;23211;53.912;9.138;2022-08-21T01:50:23;5.20;;;2.17;;
37063;SDS011;23211;53.912;9.138;2022-08-21T01:53:10;3.47;;;1.98;;
37063;SDS011;23211;53.912;9.138;2022-08-21T01:55:56;5.88;;;2.08;;
37063;SDS011;23211;53.912;9.138;2022-08-21T01:58:43;4.90;;;2.53;;
37063;SDS011;23211;53.912;9.138;2022-08-21T02:01:31;3.88;;;1.83;;
37063;SDS011;23211;53.912;9.138;2022-08-21T02:04:16;4.40;;;2.13;;
37063;SDS011;23211;53.912;9.138;2022-08-21T02:07:02;4.22;;;2.10;;
37063;SDS011;23211;53.912;9.138;2022-08-21T02:09:49;5.95;;;2.47;;
37063;SDS011;23211;53.912;9.138;2022-08-21T02:12:34;4.07;;;2.10;;
37063;SDS011;23211;53.912;9.138;2022-08-21T02:15:20;2.40;;;1.77;;
37063;SDS011;23211;53.912;9.138;2022-08-21T02:18:06;3.97;;;2.30;;
37063;SDS011;23211;53.912;9.138;2022-08-21T02:20:52;4.68;;;2.10;;
37063;SDS011;23211;53.912;9.138;2022-08-21T02:23:38;4.68;;;2.10;;
37063;SDS011;23211;53.912;9.138;2022-08-21T02:26:24;3.30;;;1.88;;
37063;SDS011;23211;53.912;9.138;2022-08-21T02:29:10;2.50;;;1.90;;
37063;SDS011;23211;53.912;9.138;2022-08-21T02:31:57;4.63;;;1.98;;
37063;SDS011;23211;53.912;9.138;2022-08-21T02:34:44;2.97;;;1.60;;
37063;SDS011;23211;53.912;9.138;2022-08-21T02:37:29;5.03;;;1.98;;
37063;SDS011;23211;53.912;9.138;2022-08-21T02:40:17;4.35;;;1.95;;
37063;SDS011;23211;53.912;9.138;2022-08-21T02:43:06;4.88;;;2.20;;
37063;SDS011;23211;53.912;9.138;2022-08-21T02:45:54;3.25;;;2.10;;
37063;SDS011;23211;53.912;9.138;2022-08-21T02:48:41;4.05;;;1.90;;
37063;SDS011;23211;53.912;9.138;2022-08-21T02:51:27;5.90;;;1.80;;
37063;SDS011;23211;53.912;9.138;2022-08-21T02:54:13;3.58;;;1.65;;
37063;SDS011;23211;53.912;9.138;2022-08-21T02:56:59;3.72;;;1.55;;
37063;SDS011;23211;53.912;9.138;2022-08-21T02:59:45;4.53;;;2.03;;
37063;SDS011;23211;53.912;9.138;2022-08-21T03:02:32;6.25;;;1.80;;
37063;SDS011;23211;53.912;9.138;2022-08-21T03:05:18;3.95;;;1.80;;
37063;SDS011;23211;53.912;9.138;2022-08-21T03:08:05;3.90;;;1.70;;
37063;SDS011;23211;53.912;9.138;2022-08-21T03:10:55;4.13;;;1.95;;
37063;SDS011;23211;53.912;9.138;2022-08-21T03:13:41;6.13;;;2.10;;
37063;SDS011;23211;53.912;9.138;2022-08-21T03:16:27;8.35;;;2.80;;
37063;SDS011;23211;53.912;9.138;2022-08-21T03:19:13;6.90;;;2.65;;
37063;SDS011;23211;53.912;9.138;2022-08-21T03:21:59;5.35;;;2.13;;
37063;SDS011;23211;53.912;9.138;2022-08-21T03:24:45;4.18;;;1.92;;
37063;SDS011;23211;53.912;9.138;2022-08-21T03:27:31;5.93;;;2.30;;
37063;SDS011;23211;53.912;9.138;2022-08-21T03:30:17;5.13;;;2.00;;
37063;SDS011;23211;53.912;9.138;2022-08-21T03:33:05;5.25;;;2.30;;
37063;SDS011;23211;53.912;9.138;2022-08-21T03:36:00;3.08;;;1.83;;
37063;SDS011;23211;53.912;9.138;2022-08-21T03:38:48;3.80;;;2.08;;
37063;SDS011;23211;53.912;9.138;2022-08-21T03:41:34;5.07;;;1.83;;
37063;SDS011;23211;53.912;9.138;2022-08-21T03:44:20;4.30;;;2.10;;
37063;SDS011;23211;53.912;9.138;2022-08-21T03:47:06;3.90;;;1.98;;
37063;SDS011;23211;53.912;9.138;2022-08-21T03:49:52;4.90;;;1.90;;
37063;SDS011;23211;53.912;9.138;2022-08-21T03:52:37;5.30;;;1.83;;
37063;SDS011;23211;53.912;9.138;2022-08-21T03:55:24;7.15;;;1.77;;
37063;SDS011;23211;53.912;9.138;2022-08-21T03:58:11;5.53;;;1.73;;
37063;SDS011;23211;53.912;9.138;2022-08-21T04:00:58;4.03;;;1.50;;
37063;SDS011;23211;53.912;9.138;2022-08-21T04:03:47;5.03;;;2.13;;
37063;SDS011;23211;53.912;9.138;2022-08-21T04:06:33;9.02;;;2.13;;
37063;SDS011;23211;53.912;9.138;2022-08-21T04:09:19;6.03;;;1.95;;
37063;SDS011;23211;53.912;9.138;2022-08-21T04:12:05;6.00;;;1.85;;
37063;SDS011;23211;53.912;9.138;2022-08-21T04:14:51;2.75;;;1.40;;
37063;SDS011;23211;53.912;9.138;2022-08-21T04:17:37;3.78;;;1.55;;
37063;SDS011;23211;53.912;9.138;2022-08-21T04:20:22;3.13;;;1.38;;
37063;SDS011;23211;53.912;9.138;2022-08-21T04:23:08;4.97;;;1.85;;
37063;SDS011;23211;53.912;9.138;2022-08-21T04:25:55;3.50;;;1.77;;
37063;SDS011;23211;53.912;9.138;2022-08-21T04:28:41;5.55;;;2.10;;
37063;SDS011;23211;53.912;9.138;2022-08-21T04:31:27;13.95;;;2.45;;
37063;SDS011;23211;53.912;9.138;2022-08-21T04:34:13;7.10;;;2.58;;
37063;SDS011;23211;53.912;9.138;2022-08-21T04:36:59;5.93;;;2.40;;
37063;SDS011;23211;53.912;9.138;2022-08-21T04:39:45;7.45;;;2.13;;
37063;SDS011;23211;53.912;9.138;2022-08-21T04:42:31;7.13;;;2.22;;
37063;SDS011;23211;53.912;9.138;2022-08-21T04:45:22;5.45;;;1.92;;
37063;SDS011;23211;53.912;9.138;2022-08-21T04:48:14;4.55;;;2.08;;
37063;SDS011;23211;53.912;9.138;2022-08-21T04:54:19;3.50;;;1.40;;
37063;SDS011;23211;53.912;9.138;2022-08-21T04:57:07;4.35;;;1.70;;
37063;SDS011;23211;53.912;9.138;2022-08-21T04:59:56;3.55;;;1.98;;
37063;SDS011;23211;53.912;9.138;2022-08-21T05:02:42;9.00;;;2.60;;
37063;SDS011;23211;53.912;9.138;2022-08-21T05:05:28;8.15;;;2.00;;
37063;SDS011;23211;53.912;9.138;2022-08-21T05:08:16;6.40;;;1.95;;
37063;SDS011;23211;53.912;9.138;2022-08-21T05:11:06;5.68;;;1.77;;
37063;SDS011;23211;53.912;9.138;2022-08-21T05:13:52;3.47;;;1.80;;
37063;SDS011;23211;53.912;9.138;2022-08-21T05:16:38;6.40;;;2.03;;
37063;SDS011;23211;53.912;9.138;2022-08-21T05:19:24;4.22;;;1.30;;
37063;SDS011;23211;53.912;9.138;2022-08-21T05:22:11;4.60;;;1.67;;
37063;SDS011;23211;53.912;9.138;2022-08-21T05:24:57;5.65;;;1.95;;
37063;SDS011;23211;53.912;9.138;2022-08-21T05:27:42;4.50;;;1.52;;
37063;SDS011;23211;53.912;9.138;2022-08-21T05:30:28;3.97;;;1.67;;
37063;SDS011;23211;53.912;9.138;2022-08-21T05:33:14;3.67;;;1.60;;
37063;SDS011;23211;53.912;9.138;2022-08-21T05:36:00;5.80;;;1.55;;
37063;SDS011;23211;53.912;9.138;2022-08-21T05:38:46;6.45;;;1.70;;
37063;SDS011;23211;53.912;9.138;2022-08-21T05:41:32;8.68;;;1.67;;
37063;SDS011;23211;53.912;9.138;2022-08-21T05:44:17;7.55;;;2.05;;
37063;SDS011;23211;53.912;9.138;2022-08-21T05:47:04;8.02;;;2.65;;
37063;SDS011;23211;53.912;9.138;2022-08-21T05:49:52;6.63;;;1.63;;
37063;SDS011;23211;53.912;9.138;2022-08-21T05:52:37;11.23;;;2.55;;
37063;SDS011;23211;53.912;9.138;2022-08-21T05:55:23;6.95;;;2.10;;
37063;SDS011;23211;53.912;9.138;2022-08-21T05:58:09;4.55;;;1.77;;
37063;SDS011;23211;53.912;9.138;2022-08-21T06:00:56;3.65;;;1.70;;
37063;SDS011;23211;53.912;9.138;2022-08-21T06:03:41;7.20;;;2.20;;
37063;SDS011;23211;53.912;9.138;2022-08-21T06:06:28;10.20;;;1.92;;
37063;SDS011;23211;53.912;9.138;2022-08-21T06:09:13;4.40;;;1.58;;
37063;SDS011;23211;53.912;9.138;2022-08-21T06:12:03;4.78;;;1.83;;
37063;SDS011;23211;53.912;9.138;2022-08-21T06:14:50;5.57;;;1.92;;
37063;SDS011;23211;53.912;9.138;2022-08-21T06:17:37;8.45;;;2.03;;
37063;SDS011;23211;53.912;9.138;2022-08-21T06:20:23;5.22;;;2.03;;
37063;SDS011;23211;53.912;9.138;2022-08-21T06:23:08;5.53;;;2.15;;
37063;SDS011;23211;53.912;9.138;2022-08-21T06:25:54;6.22;;;2.28;;
37063;SDS011;23211;53.912;9.138;2022-08-21T06:28:41;5.80;;;2.08;;
37063;SDS011;23211;53.912;9.138;2022-08-21T06:31:27;6.38;;;2.22;;
37063;SDS011;23211;53.912;9.138;2022-08-21T06:34:14;6.88;;;1.95;;
37063;SDS011;23211;53.912;9.138;2022-08-21T06:37:00;7.90;;;2.55;;
37063;SDS011;23211;53.912;9.138;2022-08-21T06:39:46;5.25;;;2.65;;
37063;SDS011;23211;53.912;9.138;2022-08-21T06:42:32;4.90;;;2.30;;
37063;SDS011;23211;53.912;9.138;2022-08-21T06:45:18;4.82;;;2.08;;
37063;SDS011;23211;53.912;9.138;2022-08-21T06:48:04;5.97;;;2.70;;
37063;SDS011;23211;53.912;9.138;2022-08-21T06:50:52;7.55;;;2.42;;
37063;SDS011;23211;53.912;9.138;2022-08-21T06:53:38;9.18;;;2.65;;
37063;SDS011;23211;53.912;9.138;2022-08-21T06:56:23;8.43;;;3.25;;
37063;SDS011;23211;53.912;9.138;2022-08-21T06:59:09;6.13;;;2.50;;
37063;SDS011;23211;53.912;9.138;2022-08-21T07:01:55;7.05;;;2.40;;
37063;SDS011;23211;53.912;9.138;2022-08-21T07:04:41;9.05;;;3.25;;
37063;SDS011;23211;53.912;9.138;2022-08-21T07:07:26;9.50;;;2.38;;
37063;SDS011;23211;53.912;9.138;2022-08-21T07:10:13;7.03;;;2.50;;
37063;SDS011;23211;53.912;9.138;2022-08-21T07:13:00;5.07;;;2.15;;
37063;SDS011;23211;53.912;9.138;2022-08-21T07:15:46;7.13;;;2.05;;
37063;SDS011;23211;53.912;9.138;2022-08-21T07:18:32;8.40;;;2.60;;
37063;SDS011;23211;53.912;9.138;2022-08-21T07:21:18;9.05;;;2.85;;
37063;SDS011;23211;53.912;9.138;2022-08-21T07:24:04;6.53;;;2.92;;
37063;SDS011;23211;53.912;9.138;2022-08-21T07:26:50;6.18;;;2.45;;
37063;SDS011;23211;53.912;9.138;2022-08-21T07:29:35;6.05;;;2.03;;
37063;SDS011;23211;53.912;9.138;2022-08-21T07:32:21;5.70;;;2.45;;
37063;SDS011;23211;53.912;9.138;2022-08-21T07:35:07;7.03;;;2.33;;
37063;SDS011;23211;53.912;9.138;2022-08-21T07:37:53;6.70;;;2.80;;
37063;SDS011;23211;53.912;9.138;2022-08-21T07:40:39;8.27;;;2.80;;
37063;SDS011;23211;53.912;9.138;2022-08-21T07:43:25;9.85;;;2.90;;
37063;SDS011;23211;53.912;9.138;2022-08-21T07:46:12;5.90;;;2.50;;
37063;SDS011;23211;53.912;9.138;2022-08-21T07:48:58;5.90;;;2.58;;
37063;SDS011;23211;53.912;9.138;2022-08-21T07:51:44;7.80;;;2.38;;
37063;SDS011;23211;53.912;9.138;2022-08-21T07:54:30;7.20;;;2.53;;
37063;SDS011;23211;53.912;9.138;2022-08-21T07:57:15;7.97;;;2.58;;
37063;SDS011;23211;53.912;9.138;2022-08-21T08:00:03;6.57;;;2.47;;
37063;SDS011;23211;53.912;9.138;2022-08-21T08:02:57;11.95;;;2.55;;
37063;SDS011;23211;53.912;9.138;2022-08-21T08:05:43;8.73;;;2.30;;
37063;SDS011;23211;53.912;9.138;2022-08-21T08:08:30;8.68;;;3.13;;
37063;SDS011;23211;53.912;9.138;2022-08-21T08:11:16;7.43;;;2.83;;
37063;SDS011;23211;53.912;9.138;2022-08-21T08:14:02;7.13;;;2.33;;
37063;SDS011;23211;53.912;9.138;2022-08-21T08:16:49;6.15;;;2.17;;
37063;SDS011;23211;53.912;9.138;2022-08-21T08:19:35;6.75;;;2.35;;
37063;SDS011;23211;53.912;9.138;2022-08-21T08:22:21;13.50;;;3.10;;
37063;SDS011;23211;53.912;9.138;2022-08-21T08:25:12;5.15;;;2.38;;
37063;SDS011;23211;53.912;9.138;2022-08-21T08:28:00;4.93;;;1.70;;
37063;SDS011;23211;53.912;9.138;2022-08-21T08:30:45;5.55;;;2.20;;
37063;SDS011;23211;53.912;9.138;2022-08-21T08:33:31;9.60;;;3.05;;
37063;SDS011;23211;53.912;9.138;2022-08-21T08:36:17;4.88;;;2.08;;
37063;SDS011;23211;53.912;9.138;2022-08-21T08:39:04;9.50;;;2.40;;
37063;SDS011;23211;53.912;9.138;2022-08-21T08:41:52;5.50;;;2.50;;
37063;SDS011;23211;53.912;9.138;2022-08-21T08:44:45;7.25;;;2.60;;
37063;SDS011;23211;53.912;9.138;2022-08-21T08:47:32;6.47;;;2.13;;
37063;SDS011;23211;53.912;9.138;2022-08-21T08:50:22;7.78;;;2.55;;
37063;SDS011;23211;53.912;9.138;2022-08-21T08:53:33;5.82;;;2.03;;
37063;SDS011;23211;53.912;9.138;2022-08-21T08:56:29;5.20;;;2.00;;
37063;SDS011;23211;53.912;9.138;2022-08-21T08:59:18;4.72;;;2.00;;
37063;SDS011;23211;53.912;9.138;2022-08-21T09:02:12;6.75;;;2.20;;
37063;SDS011;23211;53.912;9.138;2022-08-21T09:04:59;7.07;;;1.98;;
37063;SDS011;23211;53.912;9.138;2022-08-21T09:13:51;11.23;;;2.35;;
37063;SDS011;23211;53.912;9.138;2022-08-21T09:26:23;2.95;;;1.50;;
37063;SDS011;23211;53.912;9.138;2022-08-21T09:29:11;5.43;;;1.50;;
37063;SDS011;23211;53.912;9.138;2022-08-21T09:31:57;5.00;;;1.42;;
37063;SDS011;23211;53.912;9.138;2022-08-21T09:34:54;6.68;;;1.75;;
37063;SDS011;23211;53.912;9.138;2022-08-21T09:40:47;6.10;;;1.83;;
37063;SDS011;23211;53.912;9.138;2022-08-21T09:43:51;8.80;;;1.70;;
37063;SDS011;23211;53.912;9.138;2022-08-21T09:46:48;4.00;;;1.50;;
37063;SDS011;23211;53.912;9.138;2022-08-21T09:49:37;7.93;;;1.80;;
37063;SDS011;23211;53.912;9.138;2022-08-21T09:52:24;5.03;;;1.80;;
37063;SDS011;23211;53.912;9.138;2022-08-21T09:55:15;2.38;;;1.40;;
37063;SDS011;23211;53.912;9.138;2022-08-21T09:58:32;3.83;;;1.30;;
37063;SDS011;23211;53.912;9.138;2022-08-21T10:01:21;3.63;;;1.20;;
37063;SDS011;23211;53.912;9.138;2022-08-21T10:04:09;3.85;;;1.50;;
37063;SDS011;23211;53.912;9.138;2022-08-21T10:07:05;3.15;;;1.63;;
37063;SDS011;23211;53.912;9.138;2022-08-21T10:10:00;5.95;;;1.42;;
37063;SDS011;23211;53.912;9.138;2022-08-21T10:13:15;3.85;;;1.40;;
37063;SDS011;23211;53.912;9.138;2022-08-21T10:25:31;3.45;;;1.38;;
37063;SDS011;23211;53.912;9.138;2022-08-21T10:29:09;3.60;;;1.38;;
37063;SDS011;23211;53.912;9.138;2022-08-21T10:31:54;6.20;;;1.38;;
37063;SDS011;23211;53.912;9.138;2022-08-21T10:35:02;4.53;;;1.30;;
37063;SDS011;23211;53.912;9.138;2022-08-21T10:38:08;3.42;;;1.42;;
37063;SDS011;23211;53.912;9.138;2022-08-21T10:41:22;4.15;;;1.35;;
37063;SDS011;23211;53.912;9.138;2022-08-21T10:44:39;3.85;;;1.50;;
37063;SDS011;23211;53.912;9.138;2022-08-21T10:47:35;7.90;;;2.00;;
37063;SDS011;23211;53.912;9.138;2022-08-21T10:56:26;3.88;;;1.23;;
37063;SDS011;23211;53.912;9.138;2022-08-21T10:59:30;3.35;;;1.23;;
37063;SDS011;23211;53.912;9.138;2022-08-21T11:05:28;3.90;;;1.10;;
37063;SDS011;23211;53.912;9.138;2022-08-21T11:08:20;4.22;;;1.48;;
37063;SDS011;23211;53.912;9.138;2022-08-21T11:17:09;6.90;;;1.38;;
37063;SDS011;23211;53.912;9.138;2022-08-21T11:19:59;9.98;;;1.27;;
37063;SDS011;23211;53.912;9.138;2022-08-21T11:22:58;4.00;;;1.38;;
37063;SDS011;23211;53.912;9.138;2022-08-21T11:25:56;3.97;;;1.35;;
37063;SDS011;23211;53.912;9.138;2022-08-21T11:28:59;5.70;;;1.40;;
37063;SDS011;23211;53.912;9.138;2022-08-21T11:38:20;3.05;;;1.20;;
37063;SDS011;23211;53.912;9.138;2022-08-21T11:47:33;8.02;;;1.80;;
37063;SDS011;23211;53.912;9.138;2022-08-21T11:50:29;4.55;;;1.42;;
37063;SDS011;23211;53.912;9.138;2022-08-21T11:53:28;4.07;;;1.60;;
37063;SDS011;23211;53.912;9.138;2022-08-21T11:56:20;6.03;;;1.38;;
37063;SDS011;23211;53.912;9.138;2022-08-21T11:59:22;4.53;;;1.45;;
37063;SDS011;23211;53.912;9.138;2022-08-21T12:02:13;7.35;;;1.73;;
37063;SDS011;23211;53.912;9.138;2022-08-21T12:05:05;6.32;;;1.52;;
37063;SDS011;23211;53.912;9.138;2022-08-21T12:11:03;6.00;;;1.30;;
37063;SDS011;23211;53.912;9.138;2022-08-21T12:14:11;4.47;;;1.33;;
37063;SDS011;23211;53.912;9.138;2022-08-21T12:17:03;2.78;;;1.00;;
37063;SDS011;23211;53.912;9.138;2022-08-21T12:20:02;3.55;;;1.20;;
37063;SDS011;23211;53.912;9.138;2022-08-21T12:28:48;4.18;;;1.33;;
37063;SDS011;23211;53.912;9.138;2022-08-21T12:31:46;3.25;;;0.95;;
37063;SDS011;23211;53.912;9.138;2022-08-21T12:34:35;3.22;;;1.15;;
37063;SDS011;23211;53.912;9.138;2022-08-21T12:37:45;4.97;;;1.13;;
37063;SDS011;23211;53.912;9.138;2022-08-21T12:40:42;4.20;;;1.10;;
37063;SDS011;23211;53.912;9.138;2022-08-21T12:43:40;3.30;;;1.27;;
37063;SDS011;23211;53.912;9.138;2022-08-21T12:46:33;2.85;;;1.48;;
37063;SDS011;23211;53.912;9.138;2022-08-21T12:49:40;3.10;;;1.25;;
37063;SDS011;23211;53.912;9.138;2022-08-21T12:52:38;3.22;;;1.13;;
37063;SDS011;23211;53.912;9.138;2022-08-21T12:55:27;2.13;;;1.10;;
37063;SDS011;23211;53.912;9.138;2022-08-21T12:58:24;3.63;;;1.40;;
37063;SDS011;23211;53.912;9.138;2022-08-21T13:01:17;5.93;;;0.90;;
37063;SDS011;23211;53.912;9.138;2022-08-21T13:04:13;5.38;;;1.40;;
37063;SDS011;23211;53.912;9.138;2022-08-21T13:07:05;3.30;;;1.27;;
37063;SDS011;23211;53.912;9.138;2022-08-21T13:09:57;2.30;;;1.00;;
37063;SDS011;23211;53.912;9.138;2022-08-21T13:12:56;4.40;;;1.08;;
37063;SDS011;23211;53.912;9.138;2022-08-21T13:15:44;3.63;;;1.13;;
37063;SDS011;23211;53.912;9.138;2022-08-21T13:18:32;5.78;;;1.05;;
37063;SDS011;23211;53.912;9.138;2022-08-21T13:21:19;5.57;;;1.52;;
37063;SDS011;23211;53.912;9.138;2022-08-21T13:24:08;2.40;;;1.10;;
37063;SDS011;23211;53.912;9.138;2022-08-21T13:26:56;3.50;;;1.30;;
37063;SDS011;23211;53.912;9.138;2022-08-21T13:29:42;5.60;;;1.40;;
37063;SDS011;23211;53.912;9.138;2022-08-21T13:32:28;4.53;;;1.23;;
37063;SDS011;23211;53.912;9.138;2022-08-21T13:35:20;3.08;;;1.27;;
37063;SDS011;23211;53.912;9.138;2022-08-21T13:38:11;5.75;;;1.42;;
37063;SDS011;23211;53.912;9.138;2022-08-21T13:40:58;7.20;;;1.70;;
37063;SDS011;23211;53.912;9.138;2022-08-21T13:43:55;6.03;;;1.13;;
37063;SDS011;23211;53.912;9.138;2022-08-21T13:46:44;5.60;;;1.45;;
37063;SDS011;23211;53.912;9.138;2022-08-21T13:49:33;6.10;;;1.67;;
37063;SDS011;23211;53.912;9.138;2022-08-21T13:52:22;3.42;;;1.30;;
37063;SDS011;23211;53.912;9.138;2022-08-21T13:55:12;4.13;;;1.30;;
37063;SDS011;23211;53.912;9.138;2022-08-21T13:58:02;3.58;;;1.17;;
37063;SDS011;23211;53.912;9.138;2022-08-21T14:00:50;3.05;;;1.25;;
37063;SDS011;23211;53.912;9.138;2022-08-21T14:03:38;6.22;;;1.45;;
37063;SDS011;23211;53.912;9.138;2022-08-21T14:06:28;4.82;;;1.45;;
37063;SDS011;23211;53.912;9.138;2022-08-21T14:12:16;7.47;;;1.27;;
37063;SDS011;23211;53.912;9.138;2022-08-21T14:15:05;2.60;;;1.02;;
37063;SDS011;23211;53.912;9.138;2022-08-21T14:17:51;11.25;;;1.38;;
37063;SDS011;23211;53.912;9.138;2022-08-21T14:20:37;4.53;;;1.23;;
37063;SDS011;23211;53.912;9.138;2022-08-21T14:23:27;4.80;;;1.40;;
37063;SDS011;23211;53.912;9.138;2022-08-21T14:26:12;5.47;;;1.42;;
37063;SDS011;23211;53.912;9.138;2022-08-21T14:29:04;5.97;;;1.45;;
37063;SDS011;23211;53.912;9.138;2022-08-21T14:31:57;3.17;;;1.30;;
37063;SDS011;23211;53.912;9.138;2022-08-21T14:37:30;4.75;;;1.50;;
37063;SDS011;23211;53.912;9.138;2022-08-21T14:40:16;10.25;;;1.80;;
37063;SDS011;23211;53.912;9.138;2022-08-21T14:43:04;4.93;;;1.83;;
37063;SDS011;23211;53.912;9.138;2022-08-21T14:45:50;7.15;;;1.95;;
37063;SDS011;23211;53.912;9.138;2022-08-21T14:48:36;9.98;;;2.17;;
37063;SDS011;23211;53.912;9.138;2022-08-21T14:51:21;8.80;;;2.40;;
37063;SDS011;23211;53.912;9.138;2022-08-21T14:54:07;11.98;;;2.00;;
37063;SDS011;23211;53.912;9.138;2022-08-21T14:56:53;8.50;;;2.08;;
37063;SDS011;23211;53.912;9.138;2022-08-21T14:59:40;7.13;;;1.85;;
37063;SDS011;23211;53.912;9.138;2022-08-21T15:02:26;12.38;;;3.10;;
37063;SDS011;23211;53.912;9.138;2022-08-21T15:05:12;7.25;;;2.10;;
37063;SDS011;23211;53.912;9.138;2022-08-21T15:07:58;7.70;;;2.38;;
37063;SDS011;23211;53.912;9.138;2022-08-21T15:10:43;9.65;;;2.08;;
37063;SDS011;23211;53.912;9.138;2022-08-21T15:13:30;12.15;;;1.95;;
37063;SDS011;23211;53.912;9.138;2022-08-21T15:16:16;6.03;;;1.63;;
37063;SDS011;23211;53.912;9.138;2022-08-21T15:19:02;9.90;;;2.45;;
37063;SDS011;23211;53.912;9.138;2022-08-21T15:21:48;7.65;;;2.28;;
37063;SDS011;23211;53.912;9.138;2022-08-21T15:24:34;7.85;;;2.15;;
37063;SDS011;23211;53.912;9.138;2022-08-21T15:27:20;6.53;;;2.42;;
37063;SDS011;23211;53.912;9.138;2022-08-21T15:30:06;4.50;;;1.40;;
37063;SDS011;23211;53.912;9.138;2022-08-21T15:32:52;8.82;;;2.35;;
37063;SDS011;23211;53.912;9.138;2022-08-21T15:35:38;11.88;;;2.40;;
37063;SDS011;23211;53.912;9.138;2022-08-21T15:38:25;11.57;;;2.80;;
37063;SDS011;23211;53.912;9.138;2022-08-21T15:41:11;10.90;;;2.35;;
37063;SDS011;23211;53.912;9.138;2022-08-21T15:43:59;16.50;;;2.80;;
37063;SDS011;23211;53.912;9.138;2022-08-21T15:46:44;5.82;;;1.95;;
37063;SDS011;23211;53.912;9.138;2022-08-21T15:49:30;6.25;;;1.88;;
37063;SDS011;23211;53.912;9.138;2022-08-21T15:52:18;14.07;;;2.83;;
37063;SDS011;23211;53.912;9.138;2022-08-21T15:55:06;6.65;;;2.17;;
37063;SDS011;23211;53.912;9.138;2022-08-21T15:57:52;7.18;;;1.83;;
37063;SDS011;23211;53.912;9.138;2022-08-21T16:00:38;8.50;;;2.50;;
37063;SDS011;23211;53.912;9.138;2022-08-21T16:03:24;8.02;;;1.92;;
37063;SDS011;23211;53.912;9.138;2022-08-21T16:06:11;9.15;;;2.92;;
37063;SDS011;23211;53.912;9.138;2022-08-21T16:08:57;7.38;;;1.85;;
37063;SDS011;23211;53.912;9.138;2022-08-21T16:11:44;7.28;;;2.22;;
37063;SDS011;23211;53.912;9.138;2022-08-21T16:14:31;8.35;;;2.00;;
37063;SDS011;23211;53.912;9.138;2022-08-21T16:17:21;10.52;;;2.47;;
37063;SDS011;23211;53.912;9.138;2022-08-21T16:20:20;10.15;;;2.75;;
37063;SDS011;23211;53.912;9.138;2022-08-21T16:23:11;8.63;;;2.50;;
37063;SDS011;23211;53.912;9.138;2022-08-21T16:25:58;7.68;;;2.25;;
37063;SDS011;23211;53.912;9.138;2022-08-21T16:28:45;9.77;;;2.75;;
37063;SDS011;23211;53.912;9.138;2022-08-21T16:31:41;10.90;;;2.50;;
37063;SDS011;23211;53.912;9.138;2022-08-21T16:34:27;6.07;;;1.83;;
37063;SDS011;23211;53.912;9.138;2022-08-21T16:37:14;6.32;;;2.22;;
37063;SDS011;23211;53.912;9.138;2022-08-21T16:40:01;10.98;;;2.60;;
37063;SDS011;23211;53.912;9.138;2022-08-21T16:42:47;9.15;;;2.75;;
37063;SDS011;23211;53.912;9.138;2022-08-21T16:45:33;7.05;;;1.83;;
37063;SDS011;23211;53.912;9.138;2022-08-21T16:48:19;7.32;;;1.65;;
37063;SDS011;23211;53.912;9.138;2022-08-21T16:51:05;5.43;;;1.88;;
37063;SDS011;23211;53.912;9.138;2022-08-21T16:53:52;10.30;;;2.13;;
37063;SDS011;23211;53.912;9.138;2022-08-21T16:56:38;10.45;;;2.20;;
37063;SDS011;23211;53.912;9.138;2022-08-21T16:59:25;7.00;;;2.10;;
37063;SDS011;23211;53.912;9.138;2022-08-21T17:02:20;6.05;;;1.85;;
37063;SDS011;23211;53.912;9.138;2022-08-21T17:05:19;9.38;;;2.28;;
37063;SDS011;23211;53.912;9.138;2022-08-21T17:08:05;6.20;;;2.20;;
37063;SDS011;23211;53.912;9.138;2022-08-21T17:10:53;5.22;;;2.08;;
37063;SDS011;23211;53.912;9.138;2022-08-21T17:13:40;5.43;;;1.67;;
37063;SDS011;23211;53.912;9.138;2022-08-21T17:16:25;8.60;;;2.22;;
37063;SDS011;23211;53.912;9.138;2022-08-21T17:19:12;6.28;;;2.15;;
37063;SDS011;23211;53.912;9.138;2022-08-21T17:21:58;6.07;;;1.80;;
37063;SDS011;23211;53.912;9.138;2022-08-21T17:24:44;6.15;;;1.90;;
37063;SDS011;23211;53.912;9.138;2022-08-21T17:27:30;10.65;;;2.20;;
37063;SDS011;23211;53.912;9.138;2022-08-21T17:30:16;7.50;;;1.88;;
37063;SDS011;23211;53.912;9.138;2022-08-21T17:33:02;7.22;;;2.25;;
37063;SDS011;23211;53.912;9.138;2022-08-21T17:35:48;7.15;;;1.50;;
37063;SDS011;23211;53.912;9.138;2022-08-21T17:38:34;15.15;;;2.35;;
37063;SDS011;23211;53.912;9.138;2022-08-21T17:41:22;9.45;;;2.38;;
37063;SDS011;23211;53.912;9.138;2022-08-21T17:44:09;12.15;;;2.13;;
37063;SDS011;23211;53.912;9.138;2022-08-21T17:46:56;6.90;;;2.53;;
37063;SDS011;23211;53.912;9.138;2022-08-21T17:49:42;8.05;;;2.30;;
37063;SDS011;23211;53.912;9.138;2022-08-21T17:52:28;9.63;;;2.72;;
37063;SDS011;23211;53.912;9.138;2022-08-21T17:55:14;10.68;;;2.78;;
37063;SDS011;23211;53.912;9.138;2022-08-21T17:58:01;8.63;;;3.05;;
37063;SDS011;23211;53.912;9.138;2022-08-21T18:00:48;8.65;;;2.17;;
37063;SDS011;23211;53.912;9.138;2022-08-21T18:03:34;9.82;;;2.58;;
37063;SDS011;23211;53.912;9.138;2022-08-21T18:06:20;10.65;;;3.00;;
37063;SDS011;23211;53.912;9.138;2022-08-21T18:09:06;9.40;;;2.80;;
37063;SDS011;23211;53.912;9.138;2022-08-21T18:11:53;11.80;;;2.85;;